»·PEaware :: N989Z KAVX-KSAN

N989Z :: KAVX-KSAN

FLIGHT INFORMATION

Flight Status: Arrived
Operator: Privately registered:
United States
More flights under this callsign
Pilot: Shane F. (23676)
Aircraft: CESSNA T210 TURBO CENTURION
(T210)
More flights by this aircraft type
Origin: KAVX Catalina
United States
Destination: KSAN San Diego Intl-Lindbergh
United States
More flights between these airports :: More routes between these airports
Route: SXC V208 OCN V23 MZB
File this flight plan on PilotEdge
Remarks: TEC route CSTP56
Altitude:
(Current/Filed)
5,000ft
Speed:
(Current/Filed)
150kts
Departed: 23-Jan-20 03:46 PM
Arrived: 23-Jan-20 04:27 PM
Distance/Time
Traveled:
74nm/0:41
Distance/Time
To Go:
Arrived

Flight Plot

Page will automatically refresh every two minutes.


Map Options




Map Legend


Flown Route
Filed Route
Departure Airport
Arrival Airport
Navaid (VOR, NDB)
Fix

Horizontal Profiles

Position Reports

Time Latitude Longitude Heading Altitude Ground
Speed
23-Jan-20 15:38 33.403501 -118.415532 63 1548ft 0kts
23-Jan-20 15:39 33.403501 -118.415532 63 1548ft 0kts
23-Jan-20 15:40 33.403501 -118.415532 63 1548ft 0kts
23-Jan-20 15:41 33.403618 -118.415282 57 1547ft 7kts
23-Jan-20 15:42 33.405624 -118.414046 56 1530ft 14kts
23-Jan-20 15:43 33.407077 -118.411548 54 1501ft 0kts
23-Jan-20 15:44 33.407077 -118.411548 54 1501ft 0kts
23-Jan-20 15:45 33.403339 -118.418418 235 1676ft 91kts
23-Jan-20 15:46 33.382006 -118.451947 222 2702ft 152kts
23-Jan-20 15:47 33.364351 -118.424289 41 3696ft 160kts
23-Jan-20 15:48 33.369503 -118.372558 98 4690ft 168kts
23-Jan-20 15:49 33.361394 -118.313774 97 5001ft 190kts
23-Jan-20 15:50 33.352991 -118.250179 97 4994ft 194kts
23-Jan-20 15:52 33.344508 -118.185754 97 4990ft 195kts
23-Jan-20 15:53 33.336000 -118.121365 97 4987ft 195kts
23-Jan-20 15:54 33.327488 -118.057196 97 5030ft 195kts
23-Jan-20 15:55 33.318863 -117.992460 97 5023ft 196kts
23-Jan-20 15:56 33.310213 -117.927791 97 5015ft 197kts
23-Jan-20 15:57 33.301494 -117.862876 96 5005ft 197kts
23-Jan-20 15:58 33.292761 -117.797930 96 5000ft 197kts
23-Jan-20 15:59 33.283978 -117.733200 97 5000ft 197kts
23-Jan-20 16:00 33.274140 -117.668544 97 5001ft 197kts
23-Jan-20 16:01 33.264362 -117.604248 97 5001ft 196kts
23-Jan-20 16:02 33.255396 -117.540075 95 4982ft 195kts
23-Jan-20 16:03 33.247882 -117.476164 95 4974ft 193kts
23-Jan-20 16:04 33.232510 -117.416299 139 4963ft 195kts
23-Jan-20 16:05 33.181822 -117.392948 159 4971ft 196kts
23-Jan-20 16:06 33.130306 -117.371074 160 4973ft 196kts
23-Jan-20 16:07 33.078627 -117.349347 161 4973ft 196kts
23-Jan-20 16:08 33.027042 -117.327693 161 4973ft 196kts
23-Jan-20 16:09 32.975228 -117.305966 161 4974ft 197kts
23-Jan-20 16:10 32.923316 -117.284225 160 4977ft 198kts
23-Jan-20 16:10 32.880970 -117.262673 145 4976ft 198kts
23-Jan-20 16:12 32.830245 -117.223717 104 4978ft 193kts
23-Jan-20 16:13 32.815853 -117.161947 102 4974ft 193kts
23-Jan-20 16:13 32.804357 -117.110330 102 4972ft 193kts
23-Jan-20 16:15 32.788466 -117.037774 102 4972ft 195kts
23-Jan-20 16:16 32.774880 -116.974707 102 4973ft 196kts
23-Jan-20 16:16 32.763678 -116.921736 102 4972ft 198kts
23-Jan-20 16:17 32.746216 -116.860767 146 4953ft 199kts
23-Jan-20 16:19 32.683579 -116.864505 190 4973ft 195kts
23-Jan-20 16:19 32.658876 -116.899700 256 4353ft 167kts
23-Jan-20 16:20 32.673195 -116.946500 291 3892ft 142kts
23-Jan-20 16:21 32.685274 -116.991673 287 3556ft 135kts
23-Jan-20 16:22 32.696932 -117.039095 287 2664ft 148kts
23-Jan-20 16:23 32.708116 -117.084978 286 1971ft 147kts
23-Jan-20 16:24 32.719756 -117.132824 286 1088ft 152kts
23-Jan-20 16:25 32.726620 -117.162289 285 516ft 86kts
23-Jan-20 16:26 32.731975 -117.182620 301 14ft 31kts
23-Jan-20 16:27 32.733032 -117.184242 15 16ft 0kts
23-Jan-20 16:28 32.734043 -117.183356 287 17ft 0kts

Navigation Log

Ident Type
Flight plan parsing failed, navigation log unavailable